Main page
METAR-TAF:

METAR-TAF

Airports :

Šiauliai, Lithuania

Šiauliai International Airport

latitude: 55-53-38N, longitude: 023-23-42E, elevation: 135 m

Current weather observation

The report was made 7 minutes ago, at 21:50 UTC
Wind 6 kt from the West
Temperature 0°C
Humidity 74%
Pressure 1024 hPa
Visibility 10 km or more
no clouds below 1500 m and no cumulonimbus

METAR: EYSA 242150Z 28006KT CAVOK M00/M04 Q1024 R32R/09//95 R32L/09//95 BLU NOSIG

Time: 23:57 (21:57 UTC)

Forecast

The report was made 1 hour and 57 minutes ago, at 20:00 UTC
Forecast valid from 24 at 21 UTC to 25 at 06 UTC
Wind 6 kt from the West/Southwest
Visibility: 7000 m
Broken clouds at a height of 2000 ft
Becoming
from 25 at 00 UTC to 25 at 01 UTC
Visibility: 3000 m
Overcast at a height of 1000 ft
mist
Temporary
from 25 at 01 UTC to 25 at 06 UTC
Visibility: 1500 m
Broken clouds at a height of 300 ft
rain, snow

TAF: EYSA 242000Z 2421/2506 25006KT 7000 BKN020 BECMG 2500/2501 3000 BR OVC010 TEMPO 2501/2506 1500 RASN BKN003

Weather observations and forecasts of more than 4000 airports (METAR and TAF reports).

The available stations are represented by yellow and red dots on the map.

Hover mouse over dot to see the name of the station.

Then click to see weather observations and forecasts.

To change the map : click on the green buttons with a black cross to zoom in, on the green button with a dash to zoom out, or on the green arrows for adjacent maps.


METAR-TAF: